createdAt,value
2022-10-05T00:01:27.235Z,98750.72
2022-10-05T00:04:03.382Z,98757.81
2022-10-05T00:06:31.897Z,98757.28
2022-10-05T00:09:02.360Z,98758.22
2022-10-05T00:11:30.711Z,98755.63
2022-10-05T00:13:59.791Z,98757.47
2022-10-05T00:16:28.190Z,98761.28
2022-10-05T00:18:56.441Z,98761.44
2022-10-05T00:21:28.050Z,98753.66
2022-10-05T00:23:59.617Z,98758.00
2022-10-05T00:26:34.372Z,98757.91
2022-10-05T00:29:03.816Z,98753.66
2022-10-05T00:31:33.954Z,98752.00
2022-10-05T00:34:02.825Z,98746.06
2022-10-05T00:36:31.187Z,98745.31
2022-10-05T00:39:02.796Z,98745.31
2022-10-05T00:41:47.858Z,98743.47
2022-10-05T00:44:38.423Z,98744.25
2022-10-05T00:47:29.141Z,98747.75
2022-10-05T00:50:41.929Z,98741.81
2022-10-05T00:53:22.388Z,98742.88
2022-10-05T00:56:03.241Z,98748.97
2022-10-05T00:58:49.962Z,98733.59
2022-10-05T01:01:22.636Z,98737.84
2022-10-05T01:04:05.030Z,98740.72
2022-10-05T01:06:46.577Z,98746.78
2022-10-05T01:09:23.886Z,98745.38
2022-10-05T01:12:02.841Z,98745.41
2022-10-05T01:14:41.735Z,98745.50
2022-10-05T01:17:20.046Z,98745.75
2022-10-05T01:20:11.491Z,98740.72
2022-10-05T01:23:02.399Z,98745.97
2022-10-05T01:25:41.140Z,98739.13
2022-10-05T01:28:16.664Z,98740.03
2022-10-05T01:30:54.903Z,98730.00
2022-10-05T01:33:31.878Z,98734.50
2022-10-05T01:36:11.013Z,98733.56
2022-10-05T01:38:48.898Z,98729.59
2022-10-05T01:41:29.874Z,98730.06
2022-10-05T01:44:04.576Z,98733.53
2022-10-05T01:46:39.674Z,98743.75
2022-10-05T01:49:22.792Z,98737.03
2022-10-05T01:52:05.642Z,98733.84
2022-10-05T01:54:49.785Z,98726.34
2022-10-05T01:57:32.572Z,98726.47
2022-10-05T02:00:09.574Z,98725.78
2022-10-05T02:02:50.045Z,98716.41
2022-10-05T02:05:23.240Z,98715.66
2022-10-05T02:07:57.194Z,98720.00
2022-10-05T02:10:32.776Z,98720.06
2022-10-05T02:13:11.479Z,98716.59
2022-10-05T02:15:46.768Z,98715.81
2022-10-05T02:18:21.494Z,98714.38
2022-10-05T02:20:52.794Z,98711.00
2022-10-05T02:23:27.012Z,98703.47
2022-10-05T02:25:57.485Z,98701.25
2022-10-05T02:28:32.772Z,98699.72
2022-10-05T02:31:06.841Z,98694.97
2022-10-05T02:33:36.712Z,98686.34
2022-10-05T02:36:16.991Z,98693.44
2022-10-05T02:39:09.100Z,98689.19
2022-10-05T02:41:49.845Z,98688.44
2022-10-05T02:44:31.972Z,98687.66
2022-10-05T02:47:14.690Z,98685.22
2022-10-05T02:49:48.979Z,98686.97
2022-10-05T02:52:24.366Z,98694.59
2022-10-05T02:55:03.415Z,98704.00
2022-10-05T02:57:40.444Z,98709.09
2022-10-05T03:00:16.972Z,98705.88
2022-10-05T03:02:57.717Z,98709.50
2022-10-05T03:05:31.896Z,98711.34
2022-10-05T03:08:09.962Z,98718.44
2022-10-05T03:10:47.179Z,98722.91
2022-10-05T03:13:27.794Z,98716.22
2022-10-05T03:16:15.415Z,98711.34
2022-10-05T03:19:00.999Z,98710.63
2022-10-05T03:21:48.366Z,98709.09
2022-10-05T03:24:42.369Z,98705.81
2022-10-05T03:27:24.367Z,98699.81
2022-10-05T03:30:04.870Z,98698.06
2022-10-05T03:32:50.633Z,98695.53
2022-10-05T03:35:29.215Z,98683.66
2022-10-05T03:38:10.643Z,98683.66
2022-10-05T03:40:46.579Z,98682.00
2022-10-05T03:43:35.952Z,98678.78
2022-10-05T03:46:10.450Z,98680.41
2022-10-05T03:48:49.647Z,98677.25
2022-10-05T03:51:29.887Z,98677.47
2022-10-05T03:54:04.213Z,98671.50
2022-10-05T03:56:38.470Z,98675.97
2022-10-05T03:59:15.913Z,98663.28
2022-10-05T04:01:52.295Z,98662.44
2022-10-05T04:04:26.750Z,98668.69
2022-10-05T04:06:57.848Z,98657.69
2022-10-05T04:09:33.037Z,98659.50
2022-10-05T04:12:13.806Z,98663.88
2022-10-05T04:14:45.956Z,98661.50
2022-10-05T04:17:17.896Z,98665.06
2022-10-05T04:19:57.662Z,98654.75
2022-10-05T04:22:35.948Z,98659.19
2022-10-05T04:25:15.647Z,98654.31
2022-10-05T04:27:48.638Z,98655.25
2022-10-05T04:30:20.067Z,98651.94
2022-10-05T04:32:55.676Z,98652.03
2022-10-05T04:36:07.357Z,98647.00
2022-10-05T04:38:48.878Z,98650.38
2022-10-05T04:41:46.029Z,98648.00
2022-10-05T04:44:34.808Z,98654.81
2022-10-05T04:47:24.509Z,98648.97
2022-10-05T04:50:11.305Z,98661.22
2022-10-05T04:52:57.014Z,98657.00
2022-10-05T04:55:37.750Z,98658.69
2022-10-05T04:58:16.733Z,98669.69
2022-10-05T05:00:57.970Z,98667.97
2022-10-05T05:03:50.076Z,98676.53
2022-10-05T05:06:34.137Z,98683.38
2022-10-05T05:09:44.177Z,98691.16
2022-10-05T05:12:25.658Z,98694.75
2022-10-05T05:15:19.240Z,98695.88
2022-10-05T05:18:06.987Z,98695.03
2022-10-05T05:20:52.348Z,98697.78
2022-10-05T05:23:31.295Z,98693.72
2022-10-05T05:26:11.308Z,98698.97
2022-10-05T05:28:49.454Z,98703.44
2022-10-05T05:31:28.819Z,98706.91
2022-10-05T05:34:06.885Z,98703.59
2022-10-05T05:36:51.857Z,98705.38
2022-10-05T05:39:26.541Z,98711.63
2022-10-05T05:42:02.742Z,98714.19
2022-10-05T05:44:42.797Z,98712.50
2022-10-05T05:47:20.944Z,98711.78
2022-10-05T05:50:17.761Z,98724.72
2022-10-05T05:52:53.691Z,98719.56
2022-10-05T05:55:30.319Z,98725.56
2022-10-05T05:58:05.845Z,98722.06
2022-10-05T06:00:41.410Z,98734.13
2022-10-05T06:03:16.711Z,98731.63
2022-10-05T06:05:49.828Z,98738.56
2022-10-05T06:08:27.972Z,98734.31
2022-10-05T06:11:12.303Z,98739.47
2022-10-05T06:13:43.048Z,98741.91
2022-10-05T06:16:20.662Z,98742.75
2022-10-05T06:18:54.996Z,98745.25
2022-10-05T06:21:31.714Z,98756.47
2022-10-05T06:24:05.440Z,98762.56
2022-10-05T06:27:19.924Z,98764.16
2022-10-05T06:30:09.146Z,98772.56
2022-10-05T06:33:04.946Z,98774.28
2022-10-05T06:35:54.156Z,98775.03
2022-10-05T06:38:54.234Z,98768.94
2022-10-05T06:41:35.228Z,98770.69
2022-10-05T06:44:11.491Z,98773.19
2022-10-05T06:47:05.691Z,98783.44
2022-10-05T06:50:07.261Z,98778.16
2022-10-05T06:53:29.174Z,98778.88
2022-10-05T06:56:07.055Z,98779.66
2022-10-05T06:58:50.193Z,98774.41
2022-10-05T07:01:32.064Z,98787.09
2022-10-05T07:04:22.589Z,98784.25
2022-10-05T07:06:58.220Z,98779.88
2022-10-05T07:09:40.455Z,98789.19
2022-10-05T07:12:35.353Z,98789.94
2022-10-05T07:15:26.636Z,98788.16
2022-10-05T07:18:12.722Z,98794.03
2022-10-05T07:20:51.187Z,98792.28
2022-10-05T07:23:46.404Z,98793.91
2022-10-05T07:26:24.457Z,98795.56
2022-10-05T07:29:11.182Z,98795.47
2022-10-05T07:31:50.653Z,98784.16
2022-10-05T07:34:36.240Z,98796.03
2022-10-05T07:37:27.780Z,98786.44
2022-10-05T07:40:07.720Z,98796.50
2022-10-05T07:42:52.697Z,98793.69
2022-10-05T07:45:31.193Z,98791.78
2022-10-05T07:48:15.147Z,98792.50
2022-10-05T07:51:01.337Z,98801.75
2022-10-05T07:53:38.146Z,98809.28
2022-10-05T07:56:17.112Z,98812.66
2022-10-05T07:58:49.564Z,98812.44
2022-10-05T08:01:23.640Z,98805.44
2022-10-05T08:03:59.904Z,98811.28
2022-10-05T08:06:42.296Z,98805.94
2022-10-05T08:09:27.342Z,98808.31
2022-10-05T08:12:10.637Z,98808.97
2022-10-05T08:14:49.254Z,98803.44
2022-10-05T08:17:31.900Z,98804.75
2022-10-05T08:20:17.621Z,98804.44
2022-10-05T08:22:52.042Z,98802.47
2022-10-05T08:25:26.693Z,98804.00
2022-10-05T08:28:05.412Z,98803.88
2022-10-05T08:30:48.740Z,98795.91
2022-10-05T08:33:20.779Z,98805.16
2022-10-05T08:35:56.006Z,98794.53
2022-10-05T08:38:32.806Z,98792.44
2022-10-05T08:41:26.388Z,98795.66
2022-10-05T08:45:13.855Z,98785.59
2022-10-05T08:48:03.022Z,98791.31
2022-10-05T08:50:55.293Z,98786.75
2022-10-05T08:53:46.077Z,98787.31
2022-10-05T08:56:37.126Z,98780.25
2022-10-05T08:59:37.209Z,98784.13
2022-10-05T09:02:26.727Z,98781.88
2022-10-05T09:05:24.765Z,98783.41
2022-10-05T09:08:21.724Z,98778.13
2022-10-05T09:11:03.741Z,98788.25
2022-10-05T09:13:54.675Z,98778.59
2022-10-05T09:16:48.583Z,98769.63
2022-10-05T09:20:20.970Z,98776.03
2022-10-05T09:23:01.085Z,98770.25
2022-10-05T09:25:44.767Z,98772.63
2022-10-05T09:28:25.658Z,98774.66
2022-10-05T09:31:17.581Z,98766.59
2022-10-05T09:34:31.528Z,98769.53
2022-10-05T09:37:49.683Z,98762.19
2022-10-05T09:41:05.655Z,98758.47
2022-10-05T09:44:53.996Z,98751.72
2022-10-05T09:48:14.739Z,98739.72
2022-10-05T09:51:25.676Z,98736.34
2022-10-05T09:54:32.704Z,98738.53
2022-10-05T09:57:49.287Z,98728.47
2022-10-05T10:00:28.227Z,98720.25
2022-10-05T10:03:27.359Z,98725.00
2022-10-05T10:06:30.980Z,98723.03
2022-10-05T10:09:29.190Z,98722.78
2022-10-05T10:12:33.893Z,98717.59
2022-10-05T10:15:48.288Z,98703.69
2022-10-05T10:18:35.576Z,98706.38
2022-10-05T10:21:36.168Z,98708.59
2022-10-05T10:24:18.127Z,98699.91
2022-10-05T10:27:09.383Z,98692.75
2022-10-05T10:30:16.523Z,98705.47
2022-10-05T10:33:15.678Z,98695.97
2022-10-05T10:35:52.016Z,98686.88
2022-10-05T10:38:40.034Z,98684.56
2022-10-05T10:41:52.464Z,98683.94
2022-10-05T10:44:49.293Z,98681.22
2022-10-05T10:47:52.757Z,98676.38
2022-10-05T10:51:05.173Z,98683.22
2022-10-05T10:54:10.839Z,98673.72
2022-10-05T10:56:58.015Z,98663.94
2022-10-05T11:00:22.768Z,98666.22
2022-10-05T11:03:35.578Z,98659.59
2022-10-05T11:06:25.726Z,98654.81
2022-10-05T11:09:13.149Z,98656.72
2022-10-05T11:12:35.729Z,98649.25
2022-10-05T11:19:21.697Z,98647.69
2022-10-05T11:22:20.707Z,98641.06
2022-10-05T11:25:31.204Z,98635.34
2022-10-05T11:28:28.670Z,98630.56
2022-10-05T11:32:01.798Z,98621.97
2022-10-05T11:34:53.212Z,98611.38
2022-10-05T11:38:04.908Z,98602.63
2022-10-05T11:41:21.851Z,98608.41
2022-10-05T11:44:44.409Z,98603.94
2022-10-05T11:47:23.717Z,98604.00
2022-10-05T11:50:06.484Z,98608.44
2022-10-05T11:52:43.785Z,98600.88
2022-10-05T11:55:25.768Z,98597.47
2022-10-05T11:57:57.311Z,98598.66
2022-10-05T12:00:37.738Z,98588.47
2022-10-05T12:03:38.719Z,98586.53
2022-10-05T12:06:35.832Z,98590.59
2022-10-05T12:09:19.897Z,98583.16
2022-10-05T12:12:04.925Z,98582.22
2022-10-05T12:14:42.147Z,98580.16
2022-10-05T12:17:24.958Z,98580.00
2022-10-05T12:19:59.364Z,98574.34
2022-10-05T12:22:34.717Z,98574.19
2022-10-05T12:25:21.492Z,98566.69
2022-10-05T12:27:53.431Z,98562.97
2022-10-05T12:30:33.310Z,98566.78
2022-10-05T12:33:12.313Z,98557.63
2022-10-05T12:35:49.239Z,98553.13
2022-10-05T12:38:28.379Z,98551.66
2022-10-05T12:41:07.781Z,98543.97
2022-10-05T12:43:50.075Z,98543.53
2022-10-05T12:46:28.768Z,98552.88
2022-10-05T12:49:25.834Z,98552.56
2022-10-05T12:51:59.181Z,98537.50
2022-10-05T12:54:43.807Z,98548.81
2022-10-05T12:57:24.076Z,98531.34
2022-10-05T12:59:59.473Z,98531.91
2022-10-05T13:02:42.241Z,98530.59
2022-10-05T13:05:26.608Z,98525.41
2022-10-05T13:08:14.880Z,98519.88
2022-10-05T13:10:49.901Z,98520.06
2022-10-05T13:13:41.392Z,98525.69
2022-10-05T13:16:18.736Z,98518.13
2022-10-05T13:19:07.442Z,98518.47
2022-10-05T13:22:02.889Z,98515.16
2022-10-05T13:24:36.502Z,98520.94
2022-10-05T13:27:14.204Z,98512.53
2022-10-05T13:29:54.231Z,98508.13
2022-10-05T13:32:26.908Z,98505.53
2022-10-05T13:35:11.388Z,98508.97
2022-10-05T13:37:46.892Z,98503.69
2022-10-05T13:40:22.639Z,98510.47
2022-10-05T13:43:00.226Z,98511.28
2022-10-05T13:45:35.627Z,98502.38
2022-10-05T13:48:19.941Z,98505.16
2022-10-05T13:50:56.464Z,98504.03
2022-10-05T13:53:36.403Z,98500.22
2022-10-05T13:56:14.579Z,98496.94
2022-10-05T13:58:49.945Z,98505.16
2022-10-05T14:01:24.479Z,98500.19
2022-10-05T14:04:07.870Z,98502.03
2022-10-05T14:06:38.719Z,98505.34
2022-10-05T14:09:15.552Z,98507.28
2022-10-05T14:11:50.933Z,98506.97
2022-10-05T14:14:28.220Z,98508.44
2022-10-05T14:16:59.139Z,98500.81
2022-10-05T14:19:32.822Z,98495.84
2022-10-05T14:22:04.561Z,98510.53
2022-10-05T14:24:45.504Z,98509.19
2022-10-05T14:27:23.442Z,98508.00
2022-10-05T14:30:00.696Z,98516.41
2022-10-05T14:32:33.221Z,98509.63
2022-10-05T14:35:15.053Z,98500.47
2022-10-05T14:37:56.249Z,98510.34
2022-10-05T14:40:32.954Z,98515.78
2022-10-05T14:43:16.920Z,98508.31
2022-10-05T14:45:55.999Z,98509.44
2022-10-05T14:48:27.931Z,98508.00
2022-10-05T14:50:59.287Z,98509.41
2022-10-05T14:53:40.206Z,98504.25
2022-10-05T14:56:32.118Z,98503.25
2022-10-05T14:59:31.196Z,98509.13
2022-10-05T15:02:12.718Z,98509.06
2022-10-05T15:04:44.677Z,98510.63
2022-10-05T15:07:24.687Z,98507.47
2022-10-05T15:10:28.192Z,98503.97
2022-10-05T15:13:11.631Z,98498.88
2022-10-05T15:15:48.658Z,98503.03
2022-10-05T15:18:32.198Z,98501.66
2022-10-05T15:21:26.502Z,98501.59
2022-10-05T15:23:58.910Z,98507.28
2022-10-05T15:26:44.993Z,98495.22
2022-10-05T15:29:37.975Z,98492.09
2022-10-05T15:32:22.161Z,98500.88
2022-10-05T15:35:05.279Z,98501.69
2022-10-05T15:37:41.941Z,98494.91
2022-10-05T15:40:23.005Z,98495.63
2022-10-05T15:42:57.488Z,98486.03
2022-10-05T15:45:33.503Z,98492.34
2022-10-05T15:48:06.685Z,98497.31
2022-10-05T15:50:45.549Z,98492.53
2022-10-05T15:53:23.001Z,98505.09
2022-10-05T15:55:56.806Z,98502.13
2022-10-05T15:58:54.321Z,98501.50
2022-10-05T16:01:47.140Z,98509.44
2022-10-05T16:04:22.791Z,98512.66
2022-10-05T16:07:13.878Z,98515.06
2022-10-05T16:09:52.083Z,98518.97
2022-10-05T16:12:42.636Z,98519.63
2022-10-05T16:15:26.327Z,98519.06
2022-10-05T16:18:32.486Z,98519.53
2022-10-05T16:21:14.616Z,98531.13
2022-10-05T16:24:04.821Z,98529.97
2022-10-05T16:26:57.767Z,98533.09
2022-10-05T16:29:39.869Z,98531.81
2022-10-05T16:32:15.479Z,98540.28
2022-10-05T16:35:07.761Z,98538.03
2022-10-05T16:37:43.374Z,98543.53
2022-10-05T16:40:21.262Z,98544.06
2022-10-05T16:43:02.131Z,98544.97
2022-10-05T16:45:48.320Z,98549.50
2022-10-05T16:48:26.515Z,98556.47
2022-10-05T16:51:21.555Z,98551.72
2022-10-05T16:54:04.342Z,98552.25
2022-10-05T16:56:41.085Z,98560.19
2022-10-05T16:59:53.749Z,98561.84
2022-10-05T17:02:39.636Z,98564.97
2022-10-05T17:05:42.254Z,98562.47
2022-10-05T17:08:41.787Z,98573.03
2022-10-05T17:11:24.580Z,98566.56
2022-10-05T17:14:32.981Z,98575.53
2022-10-05T17:17:36.687Z,98578.41
2022-10-05T17:20:23.550Z,98583.09
2022-10-05T17:22:54.917Z,98587.94
2022-10-05T17:25:40.215Z,98598.38
2022-10-05T17:28:24.545Z,98599.63
2022-10-05T17:31:14.545Z,98601.44
2022-10-05T17:34:11.542Z,98599.28
2022-10-05T17:36:47.468Z,98610.81
2022-10-05T17:39:18.375Z,98602.38
2022-10-05T17:41:48.687Z,98611.41
2022-10-05T17:44:26.311Z,98609.06
2022-10-05T17:47:00.368Z,98617.34
2022-10-05T17:50:17.523Z,98619.59
2022-10-05T17:53:45.901Z,98615.78
2022-10-05T17:56:14.357Z,98615.44
2022-10-05T17:59:06.819Z,98625.97
2022-10-05T18:01:37.975Z,98616.59
2022-10-05T18:04:34.457Z,98630.66
2022-10-05T18:07:19.369Z,98626.91
2022-10-05T18:09:59.993Z,98631.19
2022-10-05T18:12:46.546Z,98634.00
2022-10-05T18:15:50.121Z,98635.53
2022-10-05T18:18:57.157Z,98646.34
2022-10-05T18:21:39.466Z,98648.44
2022-10-05T18:24:56.122Z,98648.72
2022-10-05T18:28:03.845Z,98648.19
2022-10-05T18:30:44.944Z,98641.72
2022-10-05T18:33:53.450Z,98656.84
2022-10-05T18:36:49.974Z,98657.56
2022-10-05T18:39:55.151Z,98661.22
2022-10-05T18:42:34.112Z,98661.13
2022-10-05T18:45:18.251Z,98662.09
2022-10-05T18:47:59.376Z,98665.25
2022-10-05T18:50:34.199Z,98666.66
2022-10-05T18:53:22.001Z,98660.56
2022-10-05T18:56:02.178Z,98669.41
2022-10-05T18:58:38.053Z,98665.81
2022-10-05T19:01:46.181Z,98677.84
2022-10-05T19:04:31.115Z,98677.00
2022-10-05T19:07:13.754Z,98685.69
2022-10-05T19:09:58.335Z,98697.13
2022-10-05T19:12:41.506Z,98698.38
2022-10-05T19:15:20.404Z,98706.41
2022-10-05T19:18:24.090Z,98708.47
2022-10-05T19:21:02.306Z,98721.97
2022-10-05T19:23:49.682Z,98725.75
2022-10-05T19:26:33.234Z,98732.50
2022-10-05T19:29:16.057Z,98735.66
2022-10-05T19:31:53.015Z,98736.19
2022-10-05T19:34:39.319Z,98732.72
2022-10-05T19:37:15.680Z,98741.09
2022-10-05T19:39:52.090Z,98744.84
2022-10-05T19:42:56.004Z,98749.13
2022-10-05T19:45:26.012Z,98756.00
2022-10-05T19:48:10.665Z,98769.84
2022-10-05T19:50:39.792Z,98765.41
2022-10-05T19:53:17.122Z,98766.22
2022-10-05T19:55:47.182Z,98769.19
2022-10-05T19:58:25.571Z,98776.19
2022-10-05T20:00:57.729Z,98780.28
2022-10-05T20:03:29.209Z,98785.91
2022-10-05T20:06:00.161Z,98790.97
2022-10-05T20:08:39.443Z,98792.41
2022-10-05T20:11:12.201Z,98797.31
2022-10-05T20:13:45.452Z,98797.94
2022-10-05T20:16:46.264Z,98794.13
2022-10-05T20:19:45.276Z,98806.41
2022-10-05T20:22:27.654Z,98807.38
2022-10-05T20:25:01.113Z,98815.47
2022-10-05T20:27:43.834Z,98808.38
2022-10-05T20:30:15.774Z,98823.13
2022-10-05T20:32:45.533Z,98829.72
2022-10-05T20:35:15.734Z,98824.94
2022-10-05T20:37:44.105Z,98831.25
2022-10-05T20:40:14.795Z,98836.53
2022-10-05T20:42:43.090Z,98841.16
2022-10-05T20:45:12.777Z,98845.53
2022-10-05T20:47:42.200Z,98839.75
2022-10-05T20:50:11.628Z,98841.78
2022-10-05T20:52:40.940Z,98843.88
2022-10-05T20:55:13.210Z,98846.16
2022-10-05T20:57:42.511Z,98850.31
2022-10-05T21:00:12.935Z,98856.94
2022-10-05T21:02:41.232Z,98858.13
2022-10-05T21:05:10.802Z,98862.50
2022-10-05T21:07:40.821Z,98864.88
2022-10-05T21:10:10.046Z,98868.59
2022-10-05T21:12:39.763Z,98872.13
2022-10-05T21:15:10.490Z,98869.88
2022-10-05T21:17:38.825Z,98871.78
2022-10-05T21:20:11.980Z,98874.84
2022-10-05T21:22:40.291Z,98870.19
2022-10-05T21:25:09.785Z,98878.03
2022-10-05T21:27:39.819Z,98879.56
2022-10-05T21:30:10.149Z,98890.13
2022-10-05T21:32:44.002Z,98885.13
2022-10-05T21:35:13.969Z,98891.53
2022-10-05T21:37:42.257Z,98888.31
2022-10-05T21:40:11.751Z,98894.47
2022-10-05T21:42:41.392Z,98897.44
2022-10-05T21:45:11.268Z,98896.94
2022-10-05T21:47:39.550Z,98907.41
2022-10-05T21:50:10.227Z,98901.56
2022-10-05T21:52:38.671Z,98904.72
2022-10-05T21:55:08.399Z,98910.91
2022-10-05T21:57:37.860Z,98912.78
2022-10-05T22:00:10.773Z,98917.38
2022-10-05T22:02:39.147Z,98917.81
2022-10-05T22:05:07.949Z,98913.03
2022-10-05T22:07:36.189Z,98919.28
2022-10-05T22:10:05.723Z,98923.06
2022-10-05T22:12:34.588Z,98926.00
2022-10-05T22:15:03.187Z,98917.56
2022-10-05T22:17:33.125Z,98917.88
2022-10-05T22:20:01.995Z,98922.59
2022-10-05T22:22:30.959Z,98925.44
2022-10-05T22:24:59.490Z,98930.97
2022-10-05T22:27:30.660Z,98929.63
2022-10-05T22:29:59.323Z,98932.34
2022-10-05T22:32:27.589Z,98930.06
2022-10-05T22:34:57.264Z,98939.66
2022-10-05T22:37:25.565Z,98938.41
2022-10-05T22:39:55.142Z,98943.53
2022-10-05T22:42:23.475Z,98939.47
2022-10-05T22:44:51.741Z,98946.34
2022-10-05T22:47:20.024Z,98943.66
2022-10-05T22:49:48.254Z,98945.53
2022-10-05T22:52:18.307Z,98941.75
2022-10-05T22:54:46.630Z,98943.72
2022-10-05T22:57:14.954Z,98948.03
2022-10-05T22:59:43.523Z,98950.00
2022-10-05T23:02:12.447Z,98953.63
2022-10-05T23:04:40.810Z,98956.41
2022-10-05T23:07:09.224Z,98951.44
2022-10-05T23:09:39.000Z,98952.97
2022-10-05T23:12:07.495Z,98956.72
2022-10-05T23:14:35.834Z,98958.06
2022-10-05T23:17:04.282Z,98964.59
2022-10-05T23:19:32.813Z,98969.09
2022-10-05T23:22:01.145Z,98971.06
2022-10-05T23:24:29.429Z,98970.44
2022-10-05T23:26:59.118Z,98966.16
2022-10-05T23:29:28.601Z,98962.69
2022-10-05T23:31:56.816Z,98977.41
2022-10-05T23:34:25.606Z,98974.19
2022-10-05T23:36:54.021Z,98969.16
2022-10-05T23:39:22.323Z,98971.22
2022-10-05T23:41:50.602Z,98979.78
2022-10-05T23:44:20.227Z,98979.97
2022-10-05T23:46:48.421Z,98974.75
2022-10-05T23:49:16.781Z,98986.31
2022-10-05T23:51:45.378Z,98979.97
2022-10-05T23:54:13.598Z,98987.25
2022-10-05T23:56:41.950Z,98987.25
2022-10-05T23:59:10.266Z,98991.16
